sensor_id;sensor_type;location;lat;lon;timestamp;pressure;altitude;pressure_sealevel;temperature;humidity
77587;BME280;66744;49.716;17.158;2023-04-01T00:00:44;97523.53;;;7.45;85.22
77587;BME280;66744;49.716;17.158;2023-04-01T00:03:45;97527.31;;;7.38;85.49
77587;BME280;66744;49.716;17.158;2023-04-01T00:06:47;97528.59;;;7.24;85.19
77587;BME280;66744;49.716;17.158;2023-04-01T00:09:48;97520.22;;;7.19;85.04
77587;BME280;66744;49.716;17.158;2023-04-01T00:12:49;97527.06;;;7.14;86.62
77587;BME280;66744;49.716;17.158;2023-04-01T00:15:51;97531.44;;;7.12;85.43
77587;BME280;66744;49.716;17.158;2023-04-01T00:18:52;97520.97;;;7.10;85.43
77587;BME280;66744;49.716;17.158;2023-04-01T00:21:53;97509.56;;;7.03;85.48
77587;BME280;66744;49.716;17.158;2023-04-01T00:24:55;97508.63;;;6.97;86.22
77587;BME280;66744;49.716;17.158;2023-04-01T00:28:04;97511.72;;;6.86;85.98
77587;BME280;66744;49.716;17.158;2023-04-01T00:31:09;97514.16;;;6.84;86.70
77587;BME280;66744;49.716;17.158;2023-04-01T00:34:12;97508.06;;;6.80;87.16
77587;BME280;66744;49.716;17.158;2023-04-01T00:37:13;97510.00;;;6.70;87.36
77587;BME280;66744;49.716;17.158;2023-04-01T00:40:27;97512.22;;;6.63;86.58
77587;BME280;66744;49.716;17.158;2023-04-01T00:43:29;97509.19;;;6.61;85.19
77587;BME280;66744;49.716;17.158;2023-04-01T00:46:31;97505.63;;;6.51;85.42
77587;BME280;66744;49.716;17.158;2023-04-01T00:49:36;97502.22;;;6.38;85.88
77587;BME280;66744;49.716;17.158;2023-04-01T00:52:40;97504.53;;;6.27;85.17
77587;BME280;66744;49.716;17.158;2023-04-01T00:55:48;97503.16;;;6.23;85.76
77587;BME280;66744;49.716;17.158;2023-04-01T00:58:56;97512.34;;;6.16;86.49
77587;BME280;66744;49.716;17.158;2023-04-01T01:02:01;97503.97;;;6.10;87.11
77587;BME280;66744;49.716;17.158;2023-04-01T01:05:03;97507.97;;;6.19;86.97
77587;BME280;66744;49.716;17.158;2023-04-01T01:11:43;97497.66;;;6.35;87.73
77587;BME280;66744;49.716;17.158;2023-04-01T01:14:48;97506.81;;;6.50;88.87
77587;BME280;66744;49.716;17.158;2023-04-01T01:18:03;97507.34;;;6.58;88.11
77587;BME280;66744;49.716;17.158;2023-04-01T01:27:24;97504.97;;;6.69;87.68
77587;BME280;66744;49.716;17.158;2023-04-01T01:30:35;97507.28;;;6.70;87.26
77587;BME280;66744;49.716;17.158;2023-04-01T01:33:49;97514.28;;;6.81;86.26
77587;BME280;66744;49.716;17.158;2023-04-01T01:36:58;97514.03;;;6.88;87.42
77587;BME280;66744;49.716;17.158;2023-04-01T01:40:04;97516.94;;;6.93;87.10
77587;BME280;66744;49.716;17.158;2023-04-01T01:43:11;97515.28;;;6.96;86.35
77587;BME280;66744;49.716;17.158;2023-04-01T01:46:22;97512.56;;;6.96;86.36
77587;BME280;66744;49.716;17.158;2023-04-01T01:49:24;97511.59;;;6.90;86.53
77587;BME280;66744;49.716;17.158;2023-04-01T01:52:29;97517.69;;;6.94;87.73
77587;BME280;66744;49.716;17.158;2023-04-01T01:55:34;97521.50;;;6.96;87.96
77587;BME280;66744;49.716;17.158;2023-04-01T01:58:41;97521.97;;;7.04;87.78
77587;BME280;66744;49.716;17.158;2023-04-01T02:01:49;97517.13;;;6.99;86.49
77587;BME280;66744;49.716;17.158;2023-04-01T02:04:52;97528.03;;;6.99;88.09
77587;BME280;66744;49.716;17.158;2023-04-01T02:08:01;97525.31;;;6.99;87.35
77587;BME280;66744;49.716;17.158;2023-04-01T02:11:12;97528.34;;;7.01;86.54
77587;BME280;66744;49.716;17.158;2023-04-01T02:14:20;97531.06;;;7.01;86.59
77587;BME280;66744;49.716;17.158;2023-04-01T02:17:26;97524.59;;;7.07;87.08
77587;BME280;66744;49.716;17.158;2023-04-01T02:20:29;97525.22;;;7.11;86.80
77587;BME280;66744;49.716;17.158;2023-04-01T02:23:33;97525.13;;;7.24;85.91
77587;BME280;66744;49.716;17.158;2023-04-01T02:26:36;97516.69;;;7.40;85.73
77587;BME280;66744;49.716;17.158;2023-04-01T02:29:38;97516.09;;;7.54;86.36
77587;BME280;66744;49.716;17.158;2023-04-01T02:32:42;97516.13;;;7.63;84.93
77587;BME280;66744;49.716;17.158;2023-04-01T02:35:43;97519.19;;;7.65;85.29
77587;BME280;66744;49.716;17.158;2023-04-01T02:38:46;97521.78;;;7.69;85.38
77587;BME280;66744;49.716;17.158;2023-04-01T02:41:48;97511.91;;;7.71;83.90
77587;BME280;66744;49.716;17.158;2023-04-01T02:44:50;97514.31;;;7.69;83.57
77587;BME280;66744;49.716;17.158;2023-04-01T02:47:52;97506.91;;;7.70;84.69
77587;BME280;66744;49.716;17.158;2023-04-01T02:50:53;97505.56;;;7.74;84.48
77587;BME280;66744;49.716;17.158;2023-04-01T02:53:54;97515.22;;;7.66;83.89
77587;BME280;66744;49.716;17.158;2023-04-01T02:56:56;97507.00;;;7.57;85.08
77587;BME280;66744;49.716;17.158;2023-04-01T02:59:57;97512.00;;;7.50;84.55
77587;BME280;66744;49.716;17.158;2023-04-01T03:02:58;97520.34;;;7.46;85.36
77587;BME280;66744;49.716;17.158;2023-04-01T03:06:08;97515.94;;;7.49;85.67
77587;BME280;66744;49.716;17.158;2023-04-01T03:09:09;97524.31;;;7.54;85.16
77587;BME280;66744;49.716;17.158;2023-04-01T03:12:11;97513.38;;;7.54;86.38
77587;BME280;66744;49.716;17.158;2023-04-01T03:15:21;97514.94;;;7.64;86.01
77587;BME280;66744;49.716;17.158;2023-04-01T03:18:22;97507.81;;;7.76;85.64
77587;BME280;66744;49.716;17.158;2023-04-01T03:21:24;97520.88;;;7.81;84.89
77587;BME280;66744;49.716;17.158;2023-04-01T03:24:25;97515.59;;;7.87;84.82
77587;BME280;66744;49.716;17.158;2023-04-01T03:27:26;97516.19;;;7.91;83.63
77587;BME280;66744;49.716;17.158;2023-04-01T03:30:28;97518.34;;;7.87;83.49
77587;BME280;66744;49.716;17.158;2023-04-01T03:33:32;97513.59;;;7.87;84.05
77587;BME280;66744;49.716;17.158;2023-04-01T03:36:33;97511.34;;;7.95;84.21
77587;BME280;66744;49.716;17.158;2023-04-01T03:39:34;97511.19;;;7.98;82.07
77587;BME280;66744;49.716;17.158;2023-04-01T03:42:36;97517.41;;;8.08;82.77
77587;BME280;66744;49.716;17.158;2023-04-01T03:45:47;97514.69;;;8.08;81.80
77587;BME280;66744;49.716;17.158;2023-04-01T03:48:48;97516.22;;;8.09;81.11
77587;BME280;66744;49.716;17.158;2023-04-01T03:51:49;97511.38;;;8.13;81.97
77587;BME280;66744;49.716;17.158;2023-04-01T03:54:50;97515.59;;;8.14;81.40
77587;BME280;66744;49.716;17.158;2023-04-01T03:57:52;97520.16;;;8.17;80.60
77587;BME280;66744;49.716;17.158;2023-04-01T04:00:56;97513.78;;;8.20;81.00
77587;BME280;66744;49.716;17.158;2023-04-01T04:03:57;97512.88;;;8.23;81.08
77587;BME280;66744;49.716;17.158;2023-04-01T04:06:59;97517.44;;;8.26;80.10
77587;BME280;66744;49.716;17.158;2023-04-01T04:10:02;97514.44;;;8.33;80.03
77587;BME280;66744;49.716;17.158;2023-04-01T04:13:04;97517.31;;;8.38;80.93
77587;BME280;66744;49.716;17.158;2023-04-01T04:16:10;97516.69;;;8.34;81.32
77587;BME280;66744;49.716;17.158;2023-04-01T04:19:15;97517.47;;;8.35;79.88
77587;BME280;66744;49.716;17.158;2023-04-01T04:22:17;97523.56;;;8.30;81.54
77587;BME280;66744;49.716;17.158;2023-04-01T04:25:18;97523.06;;;8.22;81.19
77587;BME280;66744;49.716;17.158;2023-04-01T04:28:19;97526.53;;;8.23;82.30
77587;BME280;66744;49.716;17.158;2023-04-01T04:31:22;97526.53;;;8.23;81.75
77587;BME280;66744;49.716;17.158;2023-04-01T04:34:26;97524.13;;;8.25;82.21
77587;BME280;66744;49.716;17.158;2023-04-01T04:37:27;97530.38;;;8.25;81.79
77587;BME280;66744;49.716;17.158;2023-04-01T04:40:29;97530.38;;;8.25;81.87
77587;BME280;66744;49.716;17.158;2023-04-01T04:43:30;97529.28;;;8.23;82.07
77587;BME280;66744;49.716;17.158;2023-04-01T04:46:31;97526.41;;;8.26;82.13
77587;BME280;66744;49.716;17.158;2023-04-01T04:49:45;97530.22;;;8.29;82.33
77587;BME280;66744;49.716;17.158;2023-04-01T04:52:47;97529.78;;;8.30;81.94
77587;BME280;66744;49.716;17.158;2023-04-01T04:55:49;97530.38;;;8.34;81.95
77587;BME280;66744;49.716;17.158;2023-04-01T04:59:17;97532.19;;;8.37;82.93
77587;BME280;66744;49.716;17.158;2023-04-01T05:02:30;97533.88;;;8.35;81.89
77587;BME280;66744;49.716;17.158;2023-04-01T05:05:32;97534.19;;;8.37;82.37
77587;BME280;66744;49.716;17.158;2023-04-01T05:08:34;97532.53;;;8.40;81.80
77587;BME280;66744;49.716;17.158;2023-04-01T05:11:36;97538.91;;;8.46;81.83
77587;BME280;66744;49.716;17.158;2023-04-01T05:14:37;97542.69;;;8.48;81.76
77587;BME280;66744;49.716;17.158;2023-04-01T05:17:44;97534.78;;;8.50;80.72
77587;BME280;66744;49.716;17.158;2023-04-01T05:20:49;97540.72;;;8.58;79.94
77587;BME280;66744;49.716;17.158;2023-04-01T05:23:51;97547.69;;;8.68;79.94
77587;BME280;66744;49.716;17.158;2023-04-01T05:26:55;97555.59;;;8.75;79.71
77587;BME280;66744;49.716;17.158;2023-04-01T05:29:59;97549.97;;;8.78;79.19
77587;BME280;66744;49.716;17.158;2023-04-01T05:33:21;97547.81;;;8.82;79.09
77587;BME280;66744;49.716;17.158;2023-04-01T05:36:22;97551.03;;;8.90;79.19
77587;BME280;66744;49.716;17.158;2023-04-01T05:39:25;97548.72;;;8.98;79.49
77587;BME280;66744;49.716;17.158;2023-04-01T05:42:26;97556.63;;;9.05;78.79
77587;BME280;66744;49.716;17.158;2023-04-01T05:45:27;97559.34;;;9.05;79.60
77587;BME280;66744;49.716;17.158;2023-04-01T05:48:52;97556.94;;;8.98;79.15
77587;BME280;66744;49.716;17.158;2023-04-01T05:51:53;97554.19;;;8.98;79.26
77587;BME280;66744;49.716;17.158;2023-04-01T05:54:54;97560.91;;;8.97;78.79
77587;BME280;66744;49.716;17.158;2023-04-01T05:57:56;97554.78;;;9.02;78.67
77587;BME280;66744;49.716;17.158;2023-04-01T06:01:02;97560.69;;;9.09;78.54
77587;BME280;66744;49.716;17.158;2023-04-01T06:04:04;97556.59;;;9.14;79.15
77587;BME280;66744;49.716;17.158;2023-04-01T06:07:17;97555.97;;;9.19;78.66
77587;BME280;66744;49.716;17.158;2023-04-01T06:10:20;97560.06;;;9.23;78.43
77587;BME280;66744;49.716;17.158;2023-04-01T06:13:36;97561.53;;;9.33;78.04
77587;BME280;66744;49.716;17.158;2023-04-01T06:20:12;97566.03;;;9.55;78.12
77587;BME280;66744;49.716;17.158;2023-04-01T06:23:46;97556.97;;;9.72;77.85
77587;BME280;66744;49.716;17.158;2023-04-01T06:27:04;97548.34;;;9.88;76.52
77587;BME280;66744;49.716;17.158;2023-04-01T06:37:23;97554.09;;;10.23;75.29
77587;BME280;66744;49.716;17.158;2023-04-01T06:43:59;97562.22;;;10.18;75.79
77587;BME280;66744;49.716;17.158;2023-04-01T06:54:58;97555.13;;;10.49;75.76
77587;BME280;66744;49.716;17.158;2023-04-01T07:01:58;97564.81;;;10.59;74.10
77587;BME280;66744;49.716;17.158;2023-04-01T07:05:01;97565.97;;;10.82;73.60
77587;BME280;66744;49.716;17.158;2023-04-01T07:08:09;97571.97;;;10.95;74.06
77587;BME280;66744;49.716;17.158;2023-04-01T07:11:32;97570.81;;;11.16;73.54
77587;BME280;66744;49.716;17.158;2023-04-01T07:14:54;97572.81;;;11.45;70.63
77587;BME280;66744;49.716;17.158;2023-04-01T07:18:03;97565.41;;;11.51;72.77
77587;BME280;66744;49.716;17.158;2023-04-01T07:21:23;97576.22;;;11.55;71.72
77587;BME280;66744;49.716;17.158;2023-04-01T07:24:33;97575.59;;;11.65;71.38
77587;BME280;66744;49.716;17.158;2023-04-01T07:27:42;97577.41;;;11.68;71.12
77587;BME280;66744;49.716;17.158;2023-04-01T07:31:20;97582.63;;;11.66;70.50
77587;BME280;66744;49.716;17.158;2023-04-01T07:34:28;97578.97;;;11.69;70.00
77587;BME280;66744;49.716;17.158;2023-04-01T07:55:05;97582.84;;;11.48;72.42
77587;BME280;66744;49.716;17.158;2023-04-01T08:05:27;97576.75;;;11.59;71.07
77587;BME280;66744;49.716;17.158;2023-04-01T08:15:37;97572.88;;;12.00;70.03
77587;BME280;66744;49.716;17.158;2023-04-01T08:18:58;97574.28;;;12.31;67.98
77587;BME280;66744;49.716;17.158;2023-04-01T08:22:20;97583.56;;;12.53;66.65
77587;BME280;66744;49.716;17.158;2023-04-01T08:25:26;97581.72;;;12.65;66.46
77587;BME280;66744;49.716;17.158;2023-04-01T08:28:37;97579.13;;;12.56;65.97
77587;BME280;66744;49.716;17.158;2023-04-01T08:31:54;97588.53;;;12.49;67.58
77587;BME280;66744;49.716;17.158;2023-04-01T08:35:27;97586.19;;;12.42;64.77
77587;BME280;66744;49.716;17.158;2023-04-01T08:38:34;97587.59;;;12.32;64.88
77587;BME280;66744;49.716;17.158;2023-04-01T08:41:48;97584.47;;;12.45;67.01
77587;BME280;66744;49.716;17.158;2023-04-01T08:52:41;97599.00;;;12.45;64.52
77587;BME280;66744;49.716;17.158;2023-04-01T09:02:59;97602.78;;;12.68;63.55
77587;BME280;66744;49.716;17.158;2023-04-01T09:20:14;97606.19;;;12.83;62.13
77587;BME280;66744;49.716;17.158;2023-04-01T09:30:19;97615.19;;;12.58;64.69
77587;BME280;66744;49.716;17.158;2023-04-01T09:44:15;97622.31;;;12.90;64.16
77587;BME280;66744;49.716;17.158;2023-04-01T09:47:57;97620.63;;;12.72;63.11
77587;BME280;66744;49.716;17.158;2023-04-01T09:54:50;97628.38;;;12.74;64.98
77587;BME280;66744;49.716;17.158;2023-04-01T09:58:10;97627.00;;;12.84;64.15
77587;BME280;66744;49.716;17.158;2023-04-01T10:02:08;97626.16;;;12.98;61.93
77587;BME280;66744;49.716;17.158;2023-04-01T10:29:21;97633.97;;;13.77;60.71
77587;BME280;66744;49.716;17.158;2023-04-01T10:47:02;97632.03;;;13.88;59.45
77587;BME280;66744;49.716;17.158;2023-04-01T10:50:47;97621.56;;;13.67;59.02
77587;BME280;66744;49.716;17.158;2023-04-01T11:12:42;97641.66;;;13.16;61.68
77587;BME280;66744;49.716;17.158;2023-04-01T11:23:17;97652.81;;;13.53;59.75
77587;BME280;66744;49.716;17.158;2023-04-01T11:26:56;97648.44;;;13.72;59.09
77587;BME280;66744;49.716;17.158;2023-04-01T11:30:22;97637.66;;;14.05;59.10
77587;BME280;66744;49.716;17.158;2023-04-01T11:33:45;97646.41;;;14.35;58.62
77587;BME280;66744;49.716;17.158;2023-04-01T11:41:13;97655.69;;;13.95;58.58
77587;BME280;66744;49.716;17.158;2023-04-01T11:44:24;97660.84;;;13.51;58.60
77587;BME280;66744;49.716;17.158;2023-04-01T12:05:00;97671.59;;;14.42;57.41
77587;BME280;66744;49.716;17.158;2023-04-01T12:08:09;97667.50;;;14.32;56.62
77587;BME280;66744;49.716;17.158;2023-04-01T12:11:29;97665.66;;;13.87;56.67
77587;BME280;66744;49.716;17.158;2023-04-01T12:21:25;97673.72;;;14.27;58.13
77587;BME280;66744;49.716;17.158;2023-04-01T12:28:14;97674.81;;;14.83;54.45
77587;BME280;66744;49.716;17.158;2023-04-01T12:55:38;97666.00;;;15.61;52.02
77587;BME280;66744;49.716;17.158;2023-04-01T13:12:19;97685.50;;;15.24;52.40
77587;BME280;66744;49.716;17.158;2023-04-01T13:28:26;97671.03;;;15.84;51.20
77587;BME280;66744;49.716;17.158;2023-04-01T13:34:49;97663.97;;;16.17;49.38
77587;BME280;66744;49.716;17.158;2023-04-01T14:20:06;97693.38;;;13.98;56.11
77587;BME280;66744;49.716;17.158;2023-04-01T14:23:37;97700.66;;;13.04;61.16
77587;BME280;66744;49.716;17.158;2023-04-01T14:33:21;97723.34;;;11.36;74.01
77587;BME280;66744;49.716;17.158;2023-04-01T14:43:36;97730.03;;;10.25;78.92
77587;BME280;66744;49.716;17.158;2023-04-01T14:56:43;97738.16;;;10.76;81.05
77587;BME280;66744;49.716;17.158;2023-04-01T15:00:01;97745.63;;;10.76;79.72
77587;BME280;66744;49.716;17.158;2023-04-01T15:03:30;97750.72;;;10.68;81.65
77587;BME280;66744;49.716;17.158;2023-04-01T15:10:33;97746.28;;;10.94;81.79
77587;BME280;66744;49.716;17.158;2023-04-01T15:37:46;97733.56;;;12.52;76.98
77587;BME280;66744;49.716;17.158;2023-04-01T15:48:16;97726.03;;;12.67;73.06
77587;BME280;66744;49.716;17.158;2023-04-01T15:51:27;97729.88;;;12.55;69.45
77587;BME280;66744;49.716;17.158;2023-04-01T16:04:59;97738.25;;;12.46;71.19
77587;BME280;66744;49.716;17.158;2023-04-01T16:08:17;97737.56;;;12.51;69.15
77587;BME280;66744;49.716;17.158;2023-04-01T16:15:02;97733.91;;;12.60;70.40
77587;BME280;66744;49.716;17.158;2023-04-01T16:21:34;97732.06;;;12.51;71.79
77587;BME280;66744;49.716;17.158;2023-04-01T16:24:48;97732.44;;;12.44;70.75
77587;BME280;66744;49.716;17.158;2023-04-01T16:31:54;97731.41;;;12.42;72.05
77587;BME280;66744;49.716;17.158;2023-04-01T16:41:47;97751.38;;;12.37;71.92
77587;BME280;66744;49.716;17.158;2023-04-01T16:44:59;97756.13;;;12.21;75.49
77587;BME280;66744;49.716;17.158;2023-04-01T16:48:13;97753.88;;;12.05;73.54
77587;BME280;66744;49.716;17.158;2023-04-01T16:51:18;97757.00;;;11.84;75.67
77587;BME280;66744;49.716;17.158;2023-04-01T17:00:41;97764.25;;;11.43;77.85
77587;BME280;66744;49.716;17.158;2023-04-01T17:03:58;97768.28;;;11.33;79.58
77587;BME280;66744;49.716;17.158;2023-04-01T17:07:21;97777.16;;;11.13;78.75
77587;BME280;66744;49.716;17.158;2023-04-01T17:10:42;97779.97;;;11.04;79.16
77587;BME280;66744;49.716;17.158;2023-04-01T17:26:45;97803.28;;;10.52;80.87
77587;BME280;66744;49.716;17.158;2023-04-01T17:33:31;97800.00;;;10.39;82.07
77587;BME280;66744;49.716;17.158;2023-04-01T17:37:00;97811.59;;;10.34;80.56
77587;BME280;66744;49.716;17.158;2023-04-01T17:50:22;97826.72;;;10.02;83.16
77587;BME280;66744;49.716;17.158;2023-04-01T18:00:54;97828.75;;;9.74;81.72
77587;BME280;66744;49.716;17.158;2023-04-01T18:22:18;97856.00;;;9.50;83.39
77587;BME280;66744;49.716;17.158;2023-04-01T18:28:30;97868.50;;;9.42;83.86
77587;BME280;66744;49.716;17.158;2023-04-01T18:31:55;97865.91;;;9.39;83.38
77587;BME280;66744;49.716;17.158;2023-04-01T18:38:34;97882.06;;;9.46;83.94
77587;BME280;66744;49.716;17.158;2023-04-01T18:42:19;97885.88;;;9.48;84.67
77587;BME280;66744;49.716;17.158;2023-04-01T18:46:05;97896.22;;;9.44;84.18
77587;BME280;66744;49.716;17.158;2023-04-01T18:49:17;97887.22;;;9.35;84.08
77587;BME280;66744;49.716;17.158;2023-04-01T18:52:37;97893.91;;;9.34;83.66
77587;BME280;66744;49.716;17.158;2023-04-01T18:56:02;97898.47;;;9.28;82.84
77587;BME280;66744;49.716;17.158;2023-04-01T18:59:28;97900.59;;;9.24;84.38
77587;BME280;66744;49.716;17.158;2023-04-01T19:02:52;97907.00;;;9.30;84.57
77587;BME280;66744;49.716;17.158;2023-04-01T19:06:01;97904.13;;;9.33;84.42
77587;BME280;66744;49.716;17.158;2023-04-01T19:09:19;97901.06;;;9.31;83.69
77587;BME280;66744;49.716;17.158;2023-04-01T19:19:46;97911.56;;;9.33;84.16
77587;BME280;66744;49.716;17.158;2023-04-01T19:26:22;97919.22;;;9.38;84.39
77587;BME280;66744;49.716;17.158;2023-04-01T19:36:39;97914.19;;;9.45;83.92
77587;BME280;66744;49.716;17.158;2023-04-01T19:53:12;97937.81;;;9.52;83.89
77587;BME280;66744;49.716;17.158;2023-04-01T19:56:23;97950.31;;;9.53;84.20
77587;BME280;66744;49.716;17.158;2023-04-01T20:09:58;97955.41;;;9.33;83.78
77587;BME280;66744;49.716;17.158;2023-04-01T20:16:18;97977.56;;;9.08;84.52
77587;BME280;66744;49.716;17.158;2023-04-01T20:19:32;97969.03;;;9.06;83.75
77587;BME280;66744;49.716;17.158;2023-04-01T20:25:52;97981.25;;;9.14;85.12
77587;BME280;66744;49.716;17.158;2023-04-01T20:43:25;97992.66;;;9.12;83.97
77587;BME280;66744;49.716;17.158;2023-04-01T20:53:50;97983.69;;;9.21;83.88
77587;BME280;66744;49.716;17.158;2023-04-01T21:03:48;97985.88;;;9.26;83.75
77587;BME280;66744;49.716;17.158;2023-04-01T21:13:55;98001.44;;;9.38;84.70
77587;BME280;66744;49.716;17.158;2023-04-01T21:17:22;98002.34;;;9.35;83.74
77587;BME280;66744;49.716;17.158;2023-04-01T21:24:08;98014.13;;;9.14;83.83
77587;BME280;66744;49.716;17.158;2023-04-01T21:30:29;98011.78;;;9.03;84.03
77587;BME280;66744;49.716;17.158;2023-04-01T21:46:45;98023.63;;;9.00;83.33
77587;BME280;66744;49.716;17.158;2023-04-01T22:00:31;98032.09;;;8.62;84.57
77587;BME280;66744;49.716;17.158;2023-04-01T22:06:46;98021.97;;;8.50;83.94
77587;BME280;66744;49.716;17.158;2023-04-01T22:10:04;98035.13;;;8.43;84.24
77587;BME280;66744;49.716;17.158;2023-04-01T22:13:17;98037.81;;;8.33;85.06
77587;BME280;66744;49.716;17.158;2023-04-01T22:16:27;98044.94;;;8.31;85.78
77587;BME280;66744;49.716;17.158;2023-04-01T22:29:31;98049.63;;;8.30;85.31
77587;BME280;66744;49.716;17.158;2023-04-01T22:32:43;98045.25;;;8.33;85.26
77587;BME280;66744;49.716;17.158;2023-04-01T22:43:09;98049.13;;;8.45;84.83
77587;BME280;66744;49.716;17.158;2023-04-01T22:46:35;98045.97;;;8.46;84.99
77587;BME280;66744;49.716;17.158;2023-04-01T22:49:47;98044.31;;;8.49;85.02
77587;BME280;66744;49.716;17.158;2023-04-01T22:53:06;98046.59;;;8.50;85.59
77587;BME280;66744;49.716;17.158;2023-04-01T22:56:16;98046.28;;;8.48;84.94
77587;BME280;66744;49.716;17.158;2023-04-01T23:02:40;98050.75;;;8.55;84.96
77587;BME280;66744;49.716;17.158;2023-04-01T23:05:51;98045.38;;;8.51;84.83
77587;BME280;66744;49.716;17.158;2023-04-01T23:09:04;98050.09;;;8.51;84.94
77587;BME280;66744;49.716;17.158;2023-04-01T23:12:11;98052.53;;;8.49;84.93
77587;BME280;66744;49.716;17.158;2023-04-01T23:15:14;98049.44;;;8.47;85.64
77587;BME280;66744;49.716;17.158;2023-04-01T23:21:51;98065.75;;;8.50;85.31
77587;BME280;66744;49.716;17.158;2023-04-01T23:28:19;98066.53;;;8.51;84.23
77587;BME280;66744;49.716;17.158;2023-04-01T23:34:32;98067.97;;;8.43;84.33
77587;BME280;66744;49.716;17.158;2023-04-01T23:37:37;98073.00;;;8.44;85.80
77587;BME280;66744;49.716;17.158;2023-04-01T23:40:39;98073.78;;;8.45;85.53
77587;BME280;66744;49.716;17.158;2023-04-01T23:43:42;98081.66;;;8.43;85.68
77587;BME280;66744;49.716;17.158;2023-04-01T23:46:46;98076.06;;;8.46;85.86
77587;BME280;66744;49.716;17.158;2023-04-01T23:49:53;98082.97;;;8.38;85.18
77587;BME280;66744;49.716;17.158;2023-04-01T23:53:04;98079.94;;;8.36;85.41
77587;BME280;66744;49.716;17.158;2023-04-01T23:56:10;98082.66;;;8.36;85.13
77587;BME280;66744;49.716;17.158;2023-04-01T23:59:17;98083.31;;;8.40;85.16
